sensor_id;sensor_type;location;lat;lon;timestamp;P1;durP1;ratioP1;P2;durP2;ratioP2
1753;SDS011;58380;48.312;9.246;2022-08-01T07:38:13;1.83;;;1.33;;
1753;SDS011;58380;48.312;9.246;2022-08-01T07:40:43;2.30;;;1.40;;
1753;SDS011;58380;48.312;9.246;2022-08-01T07:43:11;2.45;;;1.40;;
1753;SDS011;58380;48.312;9.246;2022-08-01T07:45:40;2.58;;;1.63;;
1753;SDS011;58380;48.312;9.246;2022-08-01T07:48:09;1.92;;;1.33;;
1753;SDS011;58380;48.312;9.246;2022-08-01T07:50:38;4.13;;;2.10;;
1753;SDS011;58380;48.312;9.246;2022-08-01T07:53:10;4.80;;;2.10;;
1753;SDS011;58380;48.312;9.246;2022-08-01T07:55:38;3.65;;;1.88;;
1753;SDS011;58380;48.312;9.246;2022-08-01T07:58:07;3.08;;;1.80;;
1753;SDS011;58380;48.312;9.246;2022-08-01T08:00:36;4.75;;;2.00;;
1753;SDS011;58380;48.312;9.246;2022-08-01T08:03:05;4.68;;;2.10;;
1753;SDS011;58380;48.312;9.246;2022-08-01T08:05:34;5.43;;;1.80;;
1753;SDS011;58380;48.312;9.246;2022-08-01T08:08:04;3.85;;;1.90;;
1753;SDS011;58380;48.312;9.246;2022-08-01T08:10:36;2.95;;;1.65;;
1753;SDS011;58380;48.312;9.246;2022-08-01T08:13:05;3.20;;;1.85;;
1753;SDS011;58380;48.312;9.246;2022-08-01T08:15:33;3.05;;;1.80;;
1753;SDS011;58380;48.312;9.246;2022-08-01T08:18:02;3.75;;;1.98;;
1753;SDS011;58380;48.312;9.246;2022-08-01T08:20:31;2.35;;;1.63;;
1753;SDS011;58380;48.312;9.246;2022-08-01T08:23:00;3.85;;;1.80;;
1753;SDS011;58380;48.312;9.246;2022-08-01T08:25:52;3.60;;;1.80;;
1753;SDS011;58380;48.312;9.246;2022-08-01T08:28:20;2.63;;;1.80;;
1753;SDS011;58380;48.312;9.246;2022-08-01T08:30:49;2.85;;;1.77;;
1753;SDS011;58380;48.312;9.246;2022-08-01T08:33:18;2.95;;;1.80;;
1753;SDS011;58380;48.312;9.246;2022-08-01T08:35:46;3.40;;;1.83;;
1753;SDS011;58380;48.312;9.246;2022-08-01T08:38:15;3.13;;;1.90;;
1753;SDS011;58380;48.312;9.246;2022-08-01T08:40:44;4.25;;;2.15;;
1753;SDS011;58380;48.312;9.246;2022-08-01T08:43:16;3.28;;;1.60;;
1753;SDS011;58380;48.312;9.246;2022-08-01T08:45:45;3.10;;;1.77;;
1753;SDS011;58380;48.312;9.246;2022-08-01T08:48:15;2.35;;;1.63;;
1753;SDS011;58380;48.312;9.246;2022-08-01T08:50:45;4.32;;;1.77;;
1753;SDS011;58380;48.312;9.246;2022-08-01T08:53:16;3.08;;;1.95;;
1753;SDS011;58380;48.312;9.246;2022-08-01T08:55:46;2.75;;;1.80;;
1753;SDS011;58380;48.312;9.246;2022-08-01T08:58:19;3.55;;;1.90;;
1753;SDS011;58380;48.312;9.246;2022-08-01T09:00:49;2.92;;;1.92;;
1753;SDS011;58380;48.312;9.246;2022-08-01T09:03:19;2.88;;;1.95;;
1753;SDS011;58380;48.312;9.246;2022-08-01T09:05:48;2.60;;;1.50;;
1753;SDS011;58380;48.312;9.246;2022-08-01T09:08:17;3.97;;;1.90;;
1753;SDS011;58380;48.312;9.246;2022-08-01T09:10:45;3.40;;;1.85;;
1753;SDS011;58380;48.312;9.246;2022-08-01T09:13:14;3.15;;;1.92;;
1753;SDS011;58380;48.312;9.246;2022-08-01T09:15:46;3.35;;;2.17;;
1753;SDS011;58380;48.312;9.246;2022-08-01T09:18:25;2.85;;;1.90;;
1753;SDS011;58380;48.312;9.246;2022-08-01T09:23:49;6.60;;;2.03;;
1753;SDS011;58380;48.312;9.246;2022-08-01T09:26:28;2.95;;;1.80;;
1753;SDS011;58380;48.312;9.246;2022-08-01T09:29:01;2.42;;;1.88;;
1753;SDS011;58380;48.312;9.246;2022-08-01T09:31:42;4.07;;;2.10;;
1753;SDS011;58380;48.312;9.246;2022-08-01T09:34:12;2.10;;;1.52;;
1753;SDS011;58380;48.312;9.246;2022-08-01T09:36:44;2.58;;;1.65;;
1753;SDS011;58380;48.312;9.246;2022-08-01T09:39:17;3.10;;;1.60;;
1753;SDS011;58380;48.312;9.246;2022-08-01T09:41:48;3.10;;;1.70;;
1753;SDS011;58380;48.312;9.246;2022-08-01T09:44:17;5.03;;;2.00;;
1753;SDS011;58380;48.312;9.246;2022-08-01T09:46:54;2.72;;;2.00;;
1753;SDS011;58380;48.312;9.246;2022-08-01T09:49:31;2.85;;;1.60;;
1753;SDS011;58380;48.312;9.246;2022-08-01T09:52:10;2.78;;;1.50;;
1753;SDS011;58380;48.312;9.246;2022-08-01T09:54:42;3.20;;;1.80;;
1753;SDS011;58380;48.312;9.246;2022-08-01T09:57:21;2.45;;;1.85;;
1753;SDS011;58380;48.312;9.246;2022-08-01T09:59:51;4.55;;;1.70;;
1753;SDS011;58380;48.312;9.246;2022-08-01T10:02:34;3.38;;;1.80;;
1753;SDS011;58380;48.312;9.246;2022-08-01T10:05:06;3.60;;;1.75;;
1753;SDS011;58380;48.312;9.246;2022-08-01T10:10:27;3.08;;;1.63;;
1753;SDS011;58380;48.312;9.246;2022-08-01T10:12:58;4.03;;;1.90;;
1753;SDS011;58380;48.312;9.246;2022-08-01T10:15:28;4.18;;;1.80;;
1753;SDS011;58380;48.312;9.246;2022-08-01T10:18:02;4.05;;;1.88;;
1753;SDS011;58380;48.312;9.246;2022-08-01T10:20:34;2.92;;;2.03;;
1753;SDS011;58380;48.312;9.246;2022-08-01T10:23:03;3.28;;;2.00;;
1753;SDS011;58380;48.312;9.246;2022-08-01T10:25:34;2.33;;;1.83;;
1753;SDS011;58380;48.312;9.246;2022-08-01T10:28:14;6.18;;;1.88;;
1753;SDS011;58380;48.312;9.246;2022-08-01T10:30:52;2.13;;;1.73;;
1753;SDS011;58380;48.312;9.246;2022-08-01T10:33:30;4.10;;;1.63;;
1753;SDS011;58380;48.312;9.246;2022-08-01T10:36:01;3.85;;;2.20;;
1753;SDS011;58380;48.312;9.246;2022-08-01T10:38:32;4.80;;;2.00;;
1753;SDS011;58380;48.312;9.246;2022-08-01T10:41:02;6.93;;;4.75;;
1753;SDS011;58380;48.312;9.246;2022-08-01T10:43:32;8.77;;;2.38;;
1753;SDS011;58380;48.312;9.246;2022-08-01T10:46:03;2.70;;;1.90;;
1753;SDS011;58380;48.312;9.246;2022-08-01T10:48:38;3.45;;;1.90;;
1753;SDS011;58380;48.312;9.246;2022-08-01T10:51:14;3.63;;;1.80;;
1753;SDS011;58380;48.312;9.246;2022-08-01T10:53:45;3.47;;;1.90;;
1753;SDS011;58380;48.312;9.246;2022-08-01T10:56:17;2.58;;;1.60;;
1753;SDS011;58380;48.312;9.246;2022-08-01T10:58:47;2.30;;;1.50;;
1753;SDS011;58380;48.312;9.246;2022-08-01T11:01:21;2.55;;;1.35;;
1753;SDS011;58380;48.312;9.246;2022-08-01T11:04:02;2.47;;;1.60;;
1753;SDS011;58380;48.312;9.246;2022-08-01T11:06:49;3.42;;;1.70;;
1753;SDS011;58380;48.312;9.246;2022-08-01T11:09:37;3.60;;;1.75;;
1753;SDS011;58380;48.312;9.246;2022-08-01T11:12:10;3.67;;;1.50;;
1753;SDS011;58380;48.312;9.246;2022-08-01T11:17:54;5.03;;;2.00;;
1753;SDS011;58380;48.312;9.246;2022-08-01T11:20:26;3.13;;;1.80;;
1753;SDS011;58380;48.312;9.246;2022-08-01T11:26:13;3.45;;;2.10;;
1753;SDS011;58380;48.312;9.246;2022-08-01T11:28:46;4.60;;;2.03;;
1753;SDS011;58380;48.312;9.246;2022-08-01T11:31:43;2.20;;;1.60;;
1753;SDS011;58380;48.312;9.246;2022-08-01T11:34:12;3.08;;;1.60;;
1753;SDS011;58380;48.312;9.246;2022-08-01T11:36:43;3.60;;;1.60;;
1753;SDS011;58380;48.312;9.246;2022-08-01T11:39:13;5.20;;;1.90;;
1753;SDS011;58380;48.312;9.246;2022-08-01T11:41:44;2.97;;;2.03;;
1753;SDS011;58380;48.312;9.246;2022-08-01T11:44:16;3.20;;;2.15;;
1753;SDS011;58380;48.312;9.246;2022-08-01T11:46:54;3.30;;;2.20;;
1753;SDS011;58380;48.312;9.246;2022-08-01T11:49:34;3.75;;;1.77;;
1753;SDS011;58380;48.312;9.246;2022-08-01T11:55:08;3.20;;;1.92;;
1753;SDS011;58380;48.312;9.246;2022-08-01T11:57:38;3.90;;;2.00;;
1753;SDS011;58380;48.312;9.246;2022-08-01T12:00:10;3.67;;;1.95;;
1753;SDS011;58380;48.312;9.246;2022-08-01T12:02:41;3.03;;;2.10;;
1753;SDS011;58380;48.312;9.246;2022-08-01T12:05:12;5.57;;;2.00;;
1753;SDS011;58380;48.312;9.246;2022-08-01T12:07:49;2.60;;;2.00;;
1753;SDS011;58380;48.312;9.246;2022-08-01T12:10:21;2.65;;;1.80;;
1753;SDS011;58380;48.312;9.246;2022-08-01T12:12:53;3.72;;;2.22;;
1753;SDS011;58380;48.312;9.246;2022-08-01T12:15:23;3.40;;;1.90;;
1753;SDS011;58380;48.312;9.246;2022-08-01T12:17:58;3.38;;;1.83;;
1753;SDS011;58380;48.312;9.246;2022-08-01T12:20:30;2.78;;;1.80;;
1753;SDS011;58380;48.312;9.246;2022-08-01T12:23:05;2.70;;;1.80;;
1753;SDS011;58380;48.312;9.246;2022-08-01T12:25:36;3.67;;;1.80;;
1753;SDS011;58380;48.312;9.246;2022-08-01T12:28:09;3.22;;;2.10;;
1753;SDS011;58380;48.312;9.246;2022-08-01T12:30:40;3.38;;;1.77;;
1753;SDS011;58380;48.312;9.246;2022-08-01T12:33:09;3.78;;;1.88;;
1753;SDS011;58380;48.312;9.246;2022-08-01T12:35:45;4.20;;;2.00;;
1753;SDS011;58380;48.312;9.246;2022-08-01T12:38:19;3.67;;;1.63;;
1753;SDS011;58380;48.312;9.246;2022-08-01T12:40:50;2.70;;;1.80;;
1753;SDS011;58380;48.312;9.246;2022-08-01T12:43:19;4.35;;;1.90;;
1753;SDS011;58380;48.312;9.246;2022-08-01T12:45:50;4.63;;;2.28;;
1753;SDS011;58380;48.312;9.246;2022-08-01T12:48:20;3.58;;;1.85;;
1753;SDS011;58380;48.312;9.246;2022-08-01T12:50:49;3.22;;;1.88;;
1753;SDS011;58380;48.312;9.246;2022-08-01T12:53:25;2.28;;;1.70;;
1753;SDS011;58380;48.312;9.246;2022-08-01T12:55:54;2.78;;;1.67;;
1753;SDS011;58380;48.312;9.246;2022-08-01T12:58:23;4.30;;;1.92;;
1753;SDS011;58380;48.312;9.246;2022-08-01T13:01:01;3.85;;;1.70;;
1753;SDS011;58380;48.312;9.246;2022-08-01T13:03:32;2.30;;;1.60;;
1753;SDS011;58380;48.312;9.246;2022-08-01T13:06:03;4.75;;;2.28;;
1753;SDS011;58380;48.312;9.246;2022-08-01T13:08:42;2.83;;;1.90;;
1753;SDS011;58380;48.312;9.246;2022-08-01T13:11:13;4.85;;;1.95;;
1753;SDS011;58380;48.312;9.246;2022-08-01T13:13:44;3.70;;;1.80;;
1753;SDS011;58380;48.312;9.246;2022-08-01T13:16:15;2.47;;;1.90;;
1753;SDS011;58380;48.312;9.246;2022-08-01T13:18:48;2.95;;;1.70;;
1753;SDS011;58380;48.312;9.246;2022-08-01T13:21:18;2.70;;;2.00;;
1753;SDS011;58380;48.312;9.246;2022-08-01T13:24:06;3.33;;;1.88;;
1753;SDS011;58380;48.312;9.246;2022-08-01T13:26:39;3.95;;;2.10;;
1753;SDS011;58380;48.312;9.246;2022-08-01T13:29:10;3.65;;;1.80;;
1753;SDS011;58380;48.312;9.246;2022-08-01T13:31:41;3.40;;;1.73;;
1753;SDS011;58380;48.312;9.246;2022-08-01T13:34:10;5.60;;;2.03;;
1753;SDS011;58380;48.312;9.246;2022-08-01T13:36:40;2.42;;;1.70;;
1753;SDS011;58380;48.312;9.246;2022-08-01T13:39:12;3.28;;;2.00;;
1753;SDS011;58380;48.312;9.246;2022-08-01T13:41:53;3.20;;;2.08;;
1753;SDS011;58380;48.312;9.246;2022-08-01T13:44:21;2.88;;;1.75;;
1753;SDS011;58380;48.312;9.246;2022-08-01T13:46:50;2.70;;;1.83;;
1753;SDS011;58380;48.312;9.246;2022-08-01T13:49:18;2.45;;;1.60;;
1753;SDS011;58380;48.312;9.246;2022-08-01T13:51:47;3.25;;;1.60;;
1753;SDS011;58380;48.312;9.246;2022-08-01T13:54:18;3.60;;;2.05;;
1753;SDS011;58380;48.312;9.246;2022-08-01T13:56:48;2.42;;;1.83;;
1753;SDS011;58380;48.312;9.246;2022-08-01T13:59:17;3.20;;;2.17;;
1753;SDS011;58380;48.312;9.246;2022-08-01T14:01:46;7.13;;;2.05;;
1753;SDS011;58380;48.312;9.246;2022-08-01T14:04:15;3.40;;;1.90;;
1753;SDS011;58380;48.312;9.246;2022-08-01T14:06:44;2.58;;;1.60;;
1753;SDS011;58380;48.312;9.246;2022-08-01T14:09:12;3.40;;;1.70;;
1753;SDS011;58380;48.312;9.246;2022-08-01T14:11:44;4.57;;;1.63;;
1753;SDS011;58380;48.312;9.246;2022-08-01T14:14:13;3.30;;;1.50;;
1753;SDS011;58380;48.312;9.246;2022-08-01T14:16:41;2.58;;;1.60;;
1753;SDS011;58380;48.312;9.246;2022-08-01T14:19:11;4.10;;;1.67;;
1753;SDS011;58380;48.312;9.246;2022-08-01T14:21:41;1.90;;;1.50;;
1753;SDS011;58380;48.312;9.246;2022-08-01T14:24:10;3.28;;;1.55;;
1753;SDS011;58380;48.312;9.246;2022-08-01T14:26:38;1.77;;;1.42;;
1753;SDS011;58380;48.312;9.246;2022-08-01T14:29:09;2.88;;;1.38;;
1753;SDS011;58380;48.312;9.246;2022-08-01T14:31:38;2.63;;;1.50;;
1753;SDS011;58380;48.312;9.246;2022-08-01T14:34:06;3.05;;;1.70;;
1753;SDS011;58380;48.312;9.246;2022-08-01T14:36:35;2.30;;;1.45;;
1753;SDS011;58380;48.312;9.246;2022-08-01T14:39:03;2.30;;;1.30;;
1753;SDS011;58380;48.312;9.246;2022-08-01T14:41:32;2.78;;;1.30;;
1753;SDS011;58380;48.312;9.246;2022-08-01T14:44:01;4.72;;;1.42;;
1753;SDS011;58380;48.312;9.246;2022-08-01T14:46:35;1.92;;;1.50;;
1753;SDS011;58380;48.312;9.246;2022-08-01T14:49:04;4.03;;;2.05;;
1753;SDS011;58380;48.312;9.246;2022-08-01T14:51:32;3.28;;;1.70;;
1753;SDS011;58380;48.312;9.246;2022-08-01T14:54:03;4.50;;;1.70;;
1753;SDS011;58380;48.312;9.246;2022-08-01T14:56:32;4.50;;;1.50;;
1753;SDS011;58380;48.312;9.246;2022-08-01T14:59:01;3.72;;;1.88;;
1753;SDS011;58380;48.312;9.246;2022-08-01T15:01:29;2.67;;;1.60;;
1753;SDS011;58380;48.312;9.246;2022-08-01T15:04:00;2.95;;;1.90;;
1753;SDS011;58380;48.312;9.246;2022-08-01T15:06:29;2.45;;;1.67;;
1753;SDS011;58380;48.312;9.246;2022-08-01T15:08:57;3.35;;;1.50;;
1753;SDS011;58380;48.312;9.246;2022-08-01T15:11:26;3.22;;;1.65;;
1753;SDS011;58380;48.312;9.246;2022-08-01T15:13:54;2.67;;;1.60;;
1753;SDS011;58380;48.312;9.246;2022-08-01T15:16:35;3.22;;;1.95;;
1753;SDS011;58380;48.312;9.246;2022-08-01T15:19:07;2.97;;;1.88;;
1753;SDS011;58380;48.312;9.246;2022-08-01T15:21:36;3.17;;;1.75;;
1753;SDS011;58380;48.312;9.246;2022-08-01T15:24:05;1.90;;;1.50;;
1753;SDS011;58380;48.312;9.246;2022-08-01T15:26:35;3.15;;;1.92;;
1753;SDS011;58380;48.312;9.246;2022-08-01T15:29:04;2.05;;;1.40;;
1753;SDS011;58380;48.312;9.246;2022-08-01T15:31:32;3.95;;;1.65;;
1753;SDS011;58380;48.312;9.246;2022-08-01T15:34:01;2.30;;;1.67;;
1753;SDS011;58380;48.312;9.246;2022-08-01T15:36:32;2.45;;;1.60;;
1753;SDS011;58380;48.312;9.246;2022-08-01T15:39:01;2.75;;;1.88;;
1753;SDS011;58380;48.312;9.246;2022-08-01T15:41:29;3.95;;;1.80;;
1753;SDS011;58380;48.312;9.246;2022-08-01T15:44:00;2.85;;;1.95;;
1753;SDS011;58380;48.312;9.246;2022-08-01T15:46:29;2.65;;;1.90;;
1753;SDS011;58380;48.312;9.246;2022-08-01T15:48:58;3.75;;;2.05;;
1753;SDS011;58380;48.312;9.246;2022-08-01T15:51:33;4.55;;;2.17;;
1753;SDS011;58380;48.312;9.246;2022-08-01T15:54:02;2.97;;;1.77;;
1753;SDS011;58380;48.312;9.246;2022-08-01T15:56:31;3.97;;;1.88;;
1753;SDS011;58380;48.312;9.246;2022-08-01T15:59:00;2.72;;;1.77;;
1753;SDS011;58380;48.312;9.246;2022-08-01T16:01:29;3.50;;;2.05;;
1753;SDS011;58380;48.312;9.246;2022-08-01T16:03:59;2.60;;;1.85;;
1753;SDS011;58380;48.312;9.246;2022-08-01T16:06:35;3.78;;;1.70;;
1753;SDS011;58380;48.312;9.246;2022-08-01T16:09:04;2.42;;;1.80;;
1753;SDS011;58380;48.312;9.246;2022-08-01T16:11:33;3.67;;;1.77;;
1753;SDS011;58380;48.312;9.246;2022-08-01T16:14:02;3.97;;;1.70;;
1753;SDS011;58380;48.312;9.246;2022-08-01T16:16:31;3.15;;;1.77;;
1753;SDS011;58380;48.312;9.246;2022-08-01T16:19:00;3.75;;;1.98;;
1753;SDS011;58380;48.312;9.246;2022-08-01T16:21:29;2.90;;;1.83;;
1753;SDS011;58380;48.312;9.246;2022-08-01T16:24:00;5.40;;;1.95;;
1753;SDS011;58380;48.312;9.246;2022-08-01T16:26:29;2.90;;;1.80;;
1753;SDS011;58380;48.312;9.246;2022-08-01T16:28:58;2.53;;;1.75;;
1753;SDS011;58380;48.312;9.246;2022-08-01T16:31:26;2.88;;;1.70;;
1753;SDS011;58380;48.312;9.246;2022-08-01T16:33:56;2.88;;;2.15;;
1753;SDS011;58380;48.312;9.246;2022-08-01T16:36:24;7.97;;;2.50;;
1753;SDS011;58380;48.312;9.246;2022-08-01T16:38:53;4.07;;;1.80;;
1753;SDS011;58380;48.312;9.246;2022-08-01T16:41:24;2.55;;;1.70;;
1753;SDS011;58380;48.312;9.246;2022-08-01T16:43:53;3.35;;;1.55;;
1753;SDS011;58380;48.312;9.246;2022-08-01T16:46:22;4.38;;;1.75;;
1753;SDS011;58380;48.312;9.246;2022-08-01T16:48:51;3.58;;;1.90;;
1753;SDS011;58380;48.312;9.246;2022-08-01T16:51:21;2.60;;;1.60;;
1753;SDS011;58380;48.312;9.246;2022-08-01T16:53:50;3.25;;;1.60;;
1753;SDS011;58380;48.312;9.246;2022-08-01T16:56:18;2.65;;;1.85;;
1753;SDS011;58380;48.312;9.246;2022-08-01T16:58:49;5.35;;;1.90;;
1753;SDS011;58380;48.312;9.246;2022-08-01T17:01:18;3.15;;;1.63;;
1753;SDS011;58380;48.312;9.246;2022-08-01T17:03:49;4.70;;;1.77;;
1753;SDS011;58380;48.312;9.246;2022-08-01T17:06:18;2.95;;;1.88;;
1753;SDS011;58380;48.312;9.246;2022-08-01T17:08:47;1.85;;;1.48;;
1753;SDS011;58380;48.312;9.246;2022-08-01T17:11:15;4.43;;;1.75;;
1753;SDS011;58380;48.312;9.246;2022-08-01T17:13:44;4.32;;;1.85;;
1753;SDS011;58380;48.312;9.246;2022-08-01T17:16:15;6.28;;;2.08;;
1753;SDS011;58380;48.312;9.246;2022-08-01T17:18:44;2.95;;;1.65;;
1753;SDS011;58380;48.312;9.246;2022-08-01T17:21:12;4.32;;;1.80;;
1753;SDS011;58380;48.312;9.246;2022-08-01T17:23:42;2.85;;;1.83;;
1753;SDS011;58380;48.312;9.246;2022-08-01T17:26:10;2.70;;;1.70;;
1753;SDS011;58380;48.312;9.246;2022-08-01T17:28:39;3.90;;;1.90;;
1753;SDS011;58380;48.312;9.246;2022-08-01T17:31:07;5.18;;;1.90;;
1753;SDS011;58380;48.312;9.246;2022-08-01T17:33:39;6.38;;;1.58;;
1753;SDS011;58380;48.312;9.246;2022-08-01T17:36:08;2.50;;;1.60;;
1753;SDS011;58380;48.312;9.246;2022-08-01T17:38:37;3.03;;;1.90;;
1753;SDS011;58380;48.312;9.246;2022-08-01T17:41:05;3.95;;;1.67;;
1753;SDS011;58380;48.312;9.246;2022-08-01T17:43:34;3.08;;;1.50;;
1753;SDS011;58380;48.312;9.246;2022-08-01T17:46:02;3.15;;;1.63;;
1753;SDS011;58380;48.312;9.246;2022-08-01T17:48:31;4.90;;;1.88;;
1753;SDS011;58380;48.312;9.246;2022-08-01T17:51:02;3.38;;;1.90;;
1753;SDS011;58380;48.312;9.246;2022-08-01T17:53:31;2.78;;;1.83;;
1753;SDS011;58380;48.312;9.246;2022-08-01T17:56:00;3.05;;;1.98;;
1753;SDS011;58380;48.312;9.246;2022-08-01T17:58:30;2.95;;;1.83;;
1753;SDS011;58380;48.312;9.246;2022-08-01T18:00:59;4.53;;;2.17;;
1753;SDS011;58380;48.312;9.246;2022-08-01T18:03:28;3.58;;;2.10;;
1753;SDS011;58380;48.312;9.246;2022-08-01T18:05:57;5.50;;;2.45;;
1753;SDS011;58380;48.312;9.246;2022-08-01T18:08:28;3.67;;;2.53;;
1753;SDS011;58380;48.312;9.246;2022-08-01T18:10:57;4.45;;;2.30;;
1753;SDS011;58380;48.312;9.246;2022-08-01T18:13:26;6.28;;;2.35;;
1753;SDS011;58380;48.312;9.246;2022-08-01T18:15:54;5.15;;;2.40;;
1753;SDS011;58380;48.312;9.246;2022-08-01T18:18:23;8.77;;;2.60;;
1753;SDS011;58380;48.312;9.246;2022-08-01T18:20:52;6.28;;;3.08;;
1753;SDS011;58380;48.312;9.246;2022-08-01T18:23:20;5.88;;;3.17;;
1753;SDS011;58380;48.312;9.246;2022-08-01T18:25:52;4.93;;;2.42;;
1753;SDS011;58380;48.312;9.246;2022-08-01T18:28:22;3.20;;;2.17;;
1753;SDS011;58380;48.312;9.246;2022-08-01T18:30:54;5.00;;;2.35;;
1753;SDS011;58380;48.312;9.246;2022-08-01T18:33:24;5.85;;;2.50;;
1753;SDS011;58380;48.312;9.246;2022-08-01T18:35:54;6.60;;;2.50;;
1753;SDS011;58380;48.312;9.246;2022-08-01T18:38:38;7.70;;;2.15;;
1753;SDS011;58380;48.312;9.246;2022-08-01T18:41:09;8.25;;;3.30;;
1753;SDS011;58380;48.312;9.246;2022-08-01T18:43:38;4.28;;;2.55;;
1753;SDS011;58380;48.312;9.246;2022-08-01T18:46:06;6.82;;;2.67;;
1753;SDS011;58380;48.312;9.246;2022-08-01T18:48:35;7.10;;;3.03;;
1753;SDS011;58380;48.312;9.246;2022-08-01T18:51:04;8.82;;;3.60;;
1753;SDS011;58380;48.312;9.246;2022-08-01T18:53:33;8.65;;;3.10;;
1753;SDS011;58380;48.312;9.246;2022-08-01T18:56:03;7.18;;;3.22;;
1753;SDS011;58380;48.312;9.246;2022-08-01T18:58:38;6.55;;;3.00;;
1753;SDS011;58380;48.312;9.246;2022-08-01T19:01:08;4.95;;;2.70;;
1753;SDS011;58380;48.312;9.246;2022-08-01T19:03:38;4.70;;;2.80;;
1753;SDS011;58380;48.312;9.246;2022-08-01T19:06:06;5.00;;;2.75;;
1753;SDS011;58380;48.312;9.246;2022-08-01T19:08:35;6.28;;;3.03;;
1753;SDS011;58380;48.312;9.246;2022-08-01T19:11:04;6.97;;;3.55;;
1753;SDS011;58380;48.312;9.246;2022-08-01T19:13:33;8.10;;;3.20;;
1753;SDS011;58380;48.312;9.246;2022-08-01T19:16:05;5.40;;;2.63;;
1753;SDS011;58380;48.312;9.246;2022-08-01T19:18:33;4.75;;;2.72;;
1753;SDS011;58380;48.312;9.246;2022-08-01T19:21:04;5.90;;;2.80;;
1753;SDS011;58380;48.312;9.246;2022-08-01T19:23:32;5.35;;;3.00;;
1753;SDS011;58380;48.312;9.246;2022-08-01T19:26:14;4.95;;;2.85;;
1753;SDS011;58380;48.312;9.246;2022-08-01T19:28:52;4.60;;;3.22;;
1753;SDS011;58380;48.312;9.246;2022-08-01T19:31:27;6.72;;;3.28;;
1753;SDS011;58380;48.312;9.246;2022-08-01T19:33:56;6.05;;;3.25;;
1753;SDS011;58380;48.312;9.246;2022-08-01T19:36:25;5.75;;;2.88;;
1753;SDS011;58380;48.312;9.246;2022-08-01T19:38:53;5.68;;;3.30;;
1753;SDS011;58380;48.312;9.246;2022-08-01T19:41:22;4.20;;;2.67;;
1753;SDS011;58380;48.312;9.246;2022-08-01T19:43:51;3.97;;;2.40;;
1753;SDS011;58380;48.312;9.246;2022-08-01T19:46:20;6.75;;;3.42;;
1753;SDS011;58380;48.312;9.246;2022-08-01T19:48:52;4.82;;;2.65;;
1753;SDS011;58380;48.312;9.246;2022-08-01T19:51:21;4.97;;;2.85;;
1753;SDS011;58380;48.312;9.246;2022-08-01T19:53:52;5.30;;;2.80;;
1753;SDS011;58380;48.312;9.246;2022-08-01T19:56:23;3.92;;;2.80;;
1753;SDS011;58380;48.312;9.246;2022-08-01T19:58:57;5.07;;;2.58;;
1753;SDS011;58380;48.312;9.246;2022-08-01T20:01:28;4.82;;;2.85;;
1753;SDS011;58380;48.312;9.246;2022-08-01T20:04:00;6.63;;;2.70;;
1753;SDS011;58380;48.312;9.246;2022-08-01T20:06:30;4.90;;;2.65;;
1753;SDS011;58380;48.312;9.246;2022-08-01T20:09:01;4.75;;;2.60;;
1753;SDS011;58380;48.312;9.246;2022-08-01T20:11:32;6.22;;;2.92;;
1753;SDS011;58380;48.312;9.246;2022-08-01T20:14:01;3.97;;;2.67;;
1753;SDS011;58380;48.312;9.246;2022-08-01T20:16:30;5.70;;;2.78;;
1753;SDS011;58380;48.312;9.246;2022-08-01T20:19:02;4.22;;;2.53;;
1753;SDS011;58380;48.312;9.246;2022-08-01T20:21:31;6.57;;;2.92;;
1753;SDS011;58380;48.312;9.246;2022-08-01T20:24:03;4.78;;;2.80;;
1753;SDS011;58380;48.312;9.246;2022-08-01T20:26:38;5.70;;;2.55;;
1753;SDS011;58380;48.312;9.246;2022-08-01T20:29:08;4.60;;;3.10;;
1753;SDS011;58380;48.312;9.246;2022-08-01T20:31:40;3.42;;;2.40;;
1753;SDS011;58380;48.312;9.246;2022-08-01T20:34:19;7.38;;;2.78;;
1753;SDS011;58380;48.312;9.246;2022-08-01T20:36:52;6.82;;;3.00;;
1753;SDS011;58380;48.312;9.246;2022-08-01T20:39:20;6.22;;;2.75;;
1753;SDS011;58380;48.312;9.246;2022-08-01T20:41:50;5.15;;;2.63;;
1753;SDS011;58380;48.312;9.246;2022-08-01T20:44:21;5.75;;;3.00;;
1753;SDS011;58380;48.312;9.246;2022-08-01T20:46:51;5.28;;;3.13;;
1753;SDS011;58380;48.312;9.246;2022-08-01T20:49:23;3.25;;;2.17;;
1753;SDS011;58380;48.312;9.246;2022-08-01T20:51:54;4.53;;;2.50;;
1753;SDS011;58380;48.312;9.246;2022-08-01T20:54:22;4.05;;;2.17;;
1753;SDS011;58380;48.312;9.246;2022-08-01T20:56:55;4.30;;;2.30;;
1753;SDS011;58380;48.312;9.246;2022-08-01T20:59:28;6.43;;;2.65;;
1753;SDS011;58380;48.312;9.246;2022-08-01T21:02:05;4.70;;;2.13;;
1753;SDS011;58380;48.312;9.246;2022-08-01T21:04:50;2.95;;;1.95;;
1753;SDS011;58380;48.312;9.246;2022-08-01T21:07:25;5.72;;;2.10;;
1753;SDS011;58380;48.312;9.246;2022-08-01T21:10:02;4.13;;;2.20;;
1753;SDS011;58380;48.312;9.246;2022-08-01T21:15:12;3.38;;;2.20;;
1753;SDS011;58380;48.312;9.246;2022-08-01T21:17:53;3.50;;;2.03;;
1753;SDS011;58380;48.312;9.246;2022-08-01T21:20:32;3.55;;;2.38;;
1753;SDS011;58380;48.312;9.246;2022-08-01T21:23:08;3.60;;;2.40;;
1753;SDS011;58380;48.312;9.246;2022-08-01T21:25:48;4.95;;;2.13;;
1753;SDS011;58380;48.312;9.246;2022-08-01T21:28:17;3.45;;;2.20;;
1753;SDS011;58380;48.312;9.246;2022-08-01T21:30:51;4.18;;;2.20;;
1753;SDS011;58380;48.312;9.246;2022-08-01T21:33:24;5.05;;;2.30;;
1753;SDS011;58380;48.312;9.246;2022-08-01T21:35:57;4.43;;;2.13;;
1753;SDS011;58380;48.312;9.246;2022-08-01T21:38:27;4.65;;;2.25;;
1753;SDS011;58380;48.312;9.246;2022-08-01T21:40:58;4.50;;;2.53;;
1753;SDS011;58380;48.312;9.246;2022-08-01T21:43:31;4.70;;;2.25;;
